sensor_id;sensor_type;location;lat;lon;timestamp;temperature;humidity
81488;DHT22;70897;52.464;13.428;2023-07-29T07:50:45;26.40;69.90
81488;DHT22;70897;52.464;13.428;2023-07-29T08:21:05;27.90;67.40
81488;DHT22;70897;52.464;13.428;2023-07-29T08:57:03;28.10;59.80
81488;DHT22;70897;52.464;13.428;2023-07-29T09:55:23;28.30;61.20
81488;DHT22;70897;52.464;13.428;2023-07-29T09:58:08;27.90;63.40
81488;DHT22;70897;52.464;13.428;2023-07-29T10:03:39;28.20;61.00
81488;DHT22;70897;52.464;13.428;2023-07-29T10:06:25;29.60;58.60
81488;DHT22;70897;52.464;13.428;2023-07-29T11:16:36;29.80;56.20
81488;DHT22;70897;52.464;13.428;2023-07-29T12:42:35;25.70;64.60
81488;DHT22;70897;52.464;13.428;2023-07-29T12:50:56;21.40;99.90
81488;DHT22;70897;52.464;13.428;2023-07-29T12:53:41;22.70;99.90
81488;DHT22;70897;52.464;13.428;2023-07-29T12:56:26;24.60;99.10
81488;DHT22;70897;52.464;13.428;2023-07-29T12:59:11;25.70;91.40
81488;DHT22;70897;52.464;13.428;2023-07-29T13:01:56;25.80;91.70
81488;DHT22;70897;52.464;13.428;2023-07-29T13:04:41;26.30;89.40
81488;DHT22;70897;52.464;13.428;2023-07-29T13:07:26;26.30;89.50
81488;DHT22;70897;52.464;13.428;2023-07-29T13:26:45;26.80;90.70
81488;DHT22;70897;52.464;13.428;2023-07-29T13:29:30;24.10;92.30
81488;DHT22;70897;52.464;13.428;2023-07-29T13:35:00;23.90;93.80
81488;DHT22;70897;52.464;13.428;2023-07-29T13:37:45;24.80;90.80
81488;DHT22;70897;52.464;13.428;2023-07-29T13:40:31;25.30;89.10
81488;DHT22;70897;52.464;13.428;2023-07-29T13:43:16;27.10;82.10
81488;DHT22;70897;52.464;13.428;2023-07-29T13:46:01;28.30;76.30
81488;DHT22;70897;52.464;13.428;2023-07-29T13:48:46;27.90;72.90
81488;DHT22;70897;52.464;13.428;2023-07-29T13:51:31;28.60;77.30
81488;DHT22;70897;52.464;13.428;2023-07-29T13:54:17;28.30;70.20
81488;DHT22;70897;52.464;13.428;2023-07-29T13:57:03;27.80;73.10
81488;DHT22;70897;52.464;13.428;2023-07-29T13:59:51;28.60;73.80
81488;DHT22;70897;52.464;13.428;2023-07-29T14:02:36;28.90;70.70
81488;DHT22;70897;52.464;13.428;2023-07-29T14:05:21;28.50;68.20
81488;DHT22;70897;52.464;13.428;2023-07-29T14:08:05;28.10;69.00
81488;DHT22;70897;52.464;13.428;2023-07-29T14:10:50;28.10;70.60
81488;DHT22;70897;52.464;13.428;2023-07-29T14:13:35;27.90;69.10
81488;DHT22;70897;52.464;13.428;2023-07-29T14:16:20;27.70;72.70
81488;DHT22;70897;52.464;13.428;2023-07-29T14:19:05;29.30;66.80
81488;DHT22;70897;52.464;13.428;2023-07-29T14:21:50;30.50;60.70
81488;DHT22;70897;52.464;13.428;2023-07-29T14:24:36;30.70;59.00
81488;DHT22;70897;52.464;13.428;2023-07-29T14:27:20;30.90;60.50
81488;DHT22;70897;52.464;13.428;2023-07-29T14:30:06;30.80;60.40
81488;DHT22;70897;52.464;13.428;2023-07-29T14:32:51;31.00;57.50
81488;DHT22;70897;52.464;13.428;2023-07-29T14:35:36;30.80;60.00
81488;DHT22;70897;52.464;13.428;2023-07-29T14:38:21;29.80;59.30
81488;DHT22;70897;52.464;13.428;2023-07-29T14:41:06;29.20;63.50
81488;DHT22;70897;52.464;13.428;2023-07-29T14:43:51;28.80;63.90
81488;DHT22;70897;52.464;13.428;2023-07-29T14:46:36;28.20;66.80
81488;DHT22;70897;52.464;13.428;2023-07-29T14:49:21;27.50;66.20
81488;DHT22;70897;52.464;13.428;2023-07-29T14:52:07;26.90;69.50
81488;DHT22;70897;52.464;13.428;2023-07-29T14:54:51;26.20;74.20
81488;DHT22;70897;52.464;13.428;2023-07-29T14:57:36;26.20;75.30
81488;DHT22;70897;52.464;13.428;2023-07-29T15:00:21;25.90;79.30
81488;DHT22;70897;52.464;13.428;2023-07-29T15:03:06;25.50;79.10
81488;DHT22;70897;52.464;13.428;2023-07-29T15:05:52;25.10;79.70
81488;DHT22;70897;52.464;13.428;2023-07-29T15:08:37;24.80;82.50
81488;DHT22;70897;52.464;13.428;2023-07-29T15:11:22;24.30;86.30
81488;DHT22;70897;52.464;13.428;2023-07-29T15:14:07;24.20;86.90
81488;DHT22;70897;52.464;13.428;2023-07-29T15:16:52;23.80;87.50
81488;DHT22;70897;52.464;13.428;2023-07-29T15:19:37;23.70;88.10
81488;DHT22;70897;52.464;13.428;2023-07-29T15:22:22;23.70;90.30
81488;DHT22;70897;52.464;13.428;2023-07-29T15:25:09;23.70;90.50
81488;DHT22;70897;52.464;13.428;2023-07-29T15:27:54;23.80;90.70
81488;DHT22;70897;52.464;13.428;2023-07-29T15:30:39;23.60;88.30
81488;DHT22;70897;52.464;13.428;2023-07-29T15:33:24;23.50;91.10
81488;DHT22;70897;52.464;13.428;2023-07-29T15:36:09;23.10;90.30
81488;DHT22;70897;52.464;13.428;2023-07-29T15:38:54;23.00;91.90
81488;DHT22;70897;52.464;13.428;2023-07-29T15:41:39;22.90;91.90
81488;DHT22;70897;52.464;13.428;2023-07-29T15:44:24;22.70;91.30
81488;DHT22;70897;52.464;13.428;2023-07-29T15:47:09;22.20;83.50
81488;DHT22;70897;52.464;13.428;2023-07-29T15:49:57;21.50;89.20
81488;DHT22;70897;52.464;13.428;2023-07-29T15:52:42;20.90;90.10
81488;DHT22;70897;52.464;13.428;2023-07-29T15:55:27;20.30;92.10
81488;DHT22;70897;52.464;13.428;2023-07-29T15:58:12;20.00;93.50
81488;DHT22;70897;52.464;13.428;2023-07-29T16:00:58;19.70;95.10
81488;DHT22;70897;52.464;13.428;2023-07-29T16:03:42;19.50;95.40
81488;DHT22;70897;52.464;13.428;2023-07-29T16:06:28;19.50;95.90
81488;DHT22;70897;52.464;13.428;2023-07-29T16:09:13;19.80;97.00
81488;DHT22;70897;52.464;13.428;2023-07-29T16:11:58;20.00;96.50
81488;DHT22;70897;52.464;13.428;2023-07-29T16:14:43;20.20;96.30
81488;DHT22;70897;52.464;13.428;2023-07-29T16:17:28;20.50;95.80
81488;DHT22;70897;52.464;13.428;2023-07-29T16:20:13;20.60;95.80
81488;DHT22;70897;52.464;13.428;2023-07-29T16:22:58;20.80;95.00
81488;DHT22;70897;52.464;13.428;2023-07-29T16:25:43;20.70;93.90
81488;DHT22;70897;52.464;13.428;2023-07-29T16:28:28;20.70;93.80
81488;DHT22;70897;52.464;13.428;2023-07-29T16:31:13;20.70;96.10
81488;DHT22;70897;52.464;13.428;2023-07-29T16:33:58;20.50;96.20
81488;DHT22;70897;52.464;13.428;2023-07-29T16:36:43;20.40;95.50
81488;DHT22;70897;52.464;13.428;2023-07-29T16:39:28;20.30;96.40
81488;DHT22;70897;52.464;13.428;2023-07-29T16:42:14;20.20;97.30
81488;DHT22;70897;52.464;13.428;2023-07-29T16:44:58;20.30;96.50
81488;DHT22;70897;52.464;13.428;2023-07-29T16:47:43;20.20;96.40
81488;DHT22;70897;52.464;13.428;2023-07-29T16:50:28;20.20;95.70
81488;DHT22;70897;52.464;13.428;2023-07-29T16:53:13;20.20;95.80
81488;DHT22;70897;52.464;13.428;2023-07-29T16:55:58;20.30;95.80
81488;DHT22;70897;52.464;13.428;2023-07-29T16:58:45;20.30;95.50
81488;DHT22;70897;52.464;13.428;2023-07-29T17:01:31;20.40;96.20
81488;DHT22;70897;52.464;13.428;2023-07-29T17:04:15;20.40;97.00
81488;DHT22;70897;52.464;13.428;2023-07-29T17:07:00;20.40;97.00
81488;DHT22;70897;52.464;13.428;2023-07-29T17:09:46;20.50;97.60
81488;DHT22;70897;52.464;13.428;2023-07-29T17:12:31;20.70;96.50
81488;DHT22;70897;52.464;13.428;2023-07-29T17:15:16;20.70;96.60
81488;DHT22;70897;52.464;13.428;2023-07-29T17:18:01;20.70;97.70
81488;DHT22;70897;52.464;13.428;2023-07-29T17:20:46;20.60;97.80
81488;DHT22;70897;52.464;13.428;2023-07-29T17:23:31;20.80;98.00
81488;DHT22;70897;52.464;13.428;2023-07-29T17:26:16;21.00;97.80
81488;DHT22;70897;52.464;13.428;2023-07-29T17:29:01;21.10;96.20
81488;DHT22;70897;52.464;13.428;2023-07-29T17:31:46;21.20;95.90
81488;DHT22;70897;52.464;13.428;2023-07-29T17:34:31;21.20;96.10
81488;DHT22;70897;52.464;13.428;2023-07-29T17:37:16;21.30;96.50
81488;DHT22;70897;52.464;13.428;2023-07-29T17:40:01;21.30;96.50
81488;DHT22;70897;52.464;13.428;2023-07-29T17:42:47;21.40;97.00
81488;DHT22;70897;52.464;13.428;2023-07-29T17:45:32;21.30;95.90
81488;DHT22;70897;52.464;13.428;2023-07-29T17:48:17;21.30;96.90
81488;DHT22;70897;52.464;13.428;2023-07-29T17:51:02;21.30;95.10
81488;DHT22;70897;52.464;13.428;2023-07-29T17:53:47;21.20;96.00
81488;DHT22;70897;52.464;13.428;2023-07-29T17:56:32;21.20;96.10
81488;DHT22;70897;52.464;13.428;2023-07-29T17:59:17;21.10;96.10
81488;DHT22;70897;52.464;13.428;2023-07-29T18:02:03;21.00;96.60
81488;DHT22;70897;52.464;13.428;2023-07-29T18:04:47;20.80;96.90
81488;DHT22;70897;52.464;13.428;2023-07-29T18:07:33;20.70;97.60
81488;DHT22;70897;52.464;13.428;2023-07-29T18:10:18;20.60;97.80
81488;DHT22;70897;52.464;13.428;2023-07-29T18:13:03;20.50;98.50
81488;DHT22;70897;52.464;13.428;2023-07-29T18:15:52;20.50;98.70
81488;DHT22;70897;52.464;13.428;2023-07-29T18:18:37;20.40;99.30
81488;DHT22;70897;52.464;13.428;2023-07-29T18:21:22;20.30;99.50
81488;DHT22;70897;52.464;13.428;2023-07-29T18:24:07;20.20;99.80
81488;DHT22;70897;52.464;13.428;2023-07-29T18:26:52;20.20;99.90
81488;DHT22;70897;52.464;13.428;2023-07-29T18:29:37;20.10;99.90
81488;DHT22;70897;52.464;13.428;2023-07-29T18:32:22;20.00;99.90
81488;DHT22;70897;52.464;13.428;2023-07-29T18:35:08;19.90;99.90
81488;DHT22;70897;52.464;13.428;2023-07-29T18:37:53;19.80;99.90
81488;DHT22;70897;52.464;13.428;2023-07-29T18:40:42;19.70;99.90
81488;DHT22;70897;52.464;13.428;2023-07-29T18:43:28;19.70;99.90
81488;DHT22;70897;52.464;13.428;2023-07-29T18:46:13;19.60;99.90
81488;DHT22;70897;52.464;13.428;2023-07-29T18:48:58;19.50;99.90
81488;DHT22;70897;52.464;13.428;2023-07-29T18:51:44;19.50;99.90
81488;DHT22;70897;52.464;13.428;2023-07-29T18:54:30;19.40;99.90
81488;DHT22;70897;52.464;13.428;2023-07-29T18:57:20;19.40;99.90
81488;DHT22;70897;52.464;13.428;2023-07-29T19:00:05;19.30;99.90
81488;DHT22;70897;52.464;13.428;2023-07-29T19:02:51;19.20;99.90
81488;DHT22;70897;52.464;13.428;2023-07-29T19:05:36;19.10;99.90
81488;DHT22;70897;52.464;13.428;2023-07-29T19:08:21;19.10;99.90
81488;DHT22;70897;52.464;13.428;2023-07-29T19:11:06;19.00;99.90
81488;DHT22;70897;52.464;13.428;2023-07-29T19:13:51;18.90;99.90
81488;DHT22;70897;52.464;13.428;2023-07-29T19:16:36;18.90;99.90
81488;DHT22;70897;52.464;13.428;2023-07-29T19:19:21;18.80;99.90
81488;DHT22;70897;52.464;13.428;2023-07-29T19:22:06;18.70;99.90
81488;DHT22;70897;52.464;13.428;2023-07-29T19:24:51;18.70;99.90
81488;DHT22;70897;52.464;13.428;2023-07-29T19:27:36;18.70;99.90
81488;DHT22;70897;52.464;13.428;2023-07-29T19:30:21;18.60;99.90
81488;DHT22;70897;52.464;13.428;2023-07-29T19:33:06;18.70;99.90
81488;DHT22;70897;52.464;13.428;2023-07-29T19:35:55;18.60;99.90
81488;DHT22;70897;52.464;13.428;2023-07-29T19:38:40;18.50;99.90
81488;DHT22;70897;52.464;13.428;2023-07-29T19:41:25;18.40;99.90
81488;DHT22;70897;52.464;13.428;2023-07-29T19:44:12;18.40;99.90
81488;DHT22;70897;52.464;13.428;2023-07-29T19:46:57;18.30;99.90
81488;DHT22;70897;52.464;13.428;2023-07-29T19:49:42;18.30;99.90
81488;DHT22;70897;52.464;13.428;2023-07-29T19:52:27;18.20;99.90
81488;DHT22;70897;52.464;13.428;2023-07-29T19:55:12;18.20;99.90
81488;DHT22;70897;52.464;13.428;2023-07-29T19:57:57;18.20;99.90
81488;DHT22;70897;52.464;13.428;2023-07-29T20:00:42;18.10;99.90
81488;DHT22;70897;52.464;13.428;2023-07-29T20:03:27;18.10;99.90
81488;DHT22;70897;52.464;13.428;2023-07-29T20:06:12;18.10;99.90
81488;DHT22;70897;52.464;13.428;2023-07-29T20:08:57;18.00;99.90
81488;DHT22;70897;52.464;13.428;2023-07-29T20:11:42;18.00;99.90
81488;DHT22;70897;52.464;13.428;2023-07-29T20:14:27;18.00;99.90
81488;DHT22;70897;52.464;13.428;2023-07-29T20:17:12;18.00;99.90
81488;DHT22;70897;52.464;13.428;2023-07-29T20:19:57;18.00;99.90
81488;DHT22;70897;52.464;13.428;2023-07-29T20:22:42;17.90;99.90
81488;DHT22;70897;52.464;13.428;2023-07-29T20:25:27;17.90;99.90
81488;DHT22;70897;52.464;13.428;2023-07-29T20:28:12;17.80;99.90
81488;DHT22;70897;52.464;13.428;2023-07-29T20:30:59;17.80;99.90
81488;DHT22;70897;52.464;13.428;2023-07-29T20:33:44;17.80;99.90
81488;DHT22;70897;52.464;13.428;2023-07-29T20:36:30;17.80;99.90
81488;DHT22;70897;52.464;13.428;2023-07-29T20:39:14;17.80;99.90
81488;DHT22;70897;52.464;13.428;2023-07-29T20:41:59;17.80;99.90
81488;DHT22;70897;52.464;13.428;2023-07-29T20:44:44;17.90;99.90
81488;DHT22;70897;52.464;13.428;2023-07-29T20:47:30;17.90;99.90
81488;DHT22;70897;52.464;13.428;2023-07-29T20:50:15;17.90;99.90
81488;DHT22;70897;52.464;13.428;2023-07-29T20:53:00;17.80;99.90
81488;DHT22;70897;52.464;13.428;2023-07-29T20:55:45;17.80;99.90
81488;DHT22;70897;52.464;13.428;2023-07-29T20:58:30;17.80;99.90
81488;DHT22;70897;52.464;13.428;2023-07-29T21:01:16;17.80;99.90
81488;DHT22;70897;52.464;13.428;2023-07-29T21:04:02;17.80;99.90
81488;DHT22;70897;52.464;13.428;2023-07-29T21:06:48;17.80;99.90
81488;DHT22;70897;52.464;13.428;2023-07-29T21:09:33;17.90;99.90
81488;DHT22;70897;52.464;13.428;2023-07-29T21:12:18;17.90;99.90
81488;DHT22;70897;52.464;13.428;2023-07-29T21:15:03;17.90;99.90
81488;DHT22;70897;52.464;13.428;2023-07-29T21:17:48;17.90;99.90
81488;DHT22;70897;52.464;13.428;2023-07-29T21:20:33;17.90;99.90
81488;DHT22;70897;52.464;13.428;2023-07-29T21:23:18;17.90;99.90
81488;DHT22;70897;52.464;13.428;2023-07-29T21:26:03;17.80;99.90
81488;DHT22;70897;52.464;13.428;2023-07-29T21:28:48;17.80;99.90
81488;DHT22;70897;52.464;13.428;2023-07-29T21:31:33;17.70;99.90
81488;DHT22;70897;52.464;13.428;2023-07-29T21:34:18;17.70;99.90
81488;DHT22;70897;52.464;13.428;2023-07-29T21:37:03;17.70;99.90
81488;DHT22;70897;52.464;13.428;2023-07-29T21:39:48;17.60;99.90
81488;DHT22;70897;52.464;13.428;2023-07-29T21:42:33;17.60;99.90
81488;DHT22;70897;52.464;13.428;2023-07-29T21:45:18;17.60;99.90
81488;DHT22;70897;52.464;13.428;2023-07-29T21:48:03;17.60;99.90
81488;DHT22;70897;52.464;13.428;2023-07-29T21:50:51;17.60;99.90
81488;DHT22;70897;52.464;13.428;2023-07-29T21:53:36;17.70;99.90
81488;DHT22;70897;52.464;13.428;2023-07-29T21:56:21;17.70;99.90
81488;DHT22;70897;52.464;13.428;2023-07-29T21:59:06;17.70;99.90
81488;DHT22;70897;52.464;13.428;2023-07-29T22:01:51;17.70;99.90
81488;DHT22;70897;52.464;13.428;2023-07-29T22:04:37;17.70;99.90
81488;DHT22;70897;52.464;13.428;2023-07-29T22:07:22;17.70;99.90
81488;DHT22;70897;52.464;13.428;2023-07-29T22:10:07;17.60;99.90
81488;DHT22;70897;52.464;13.428;2023-07-29T22:12:52;17.60;99.90
81488;DHT22;70897;52.464;13.428;2023-07-29T22:15:39;17.50;99.90
81488;DHT22;70897;52.464;13.428;2023-07-29T22:18:24;17.50;99.90
81488;DHT22;70897;52.464;13.428;2023-07-29T22:21:09;17.50;99.90
81488;DHT22;70897;52.464;13.428;2023-07-29T22:23:54;17.50;99.90
81488;DHT22;70897;52.464;13.428;2023-07-29T22:26:39;17.60;99.90
81488;DHT22;70897;52.464;13.428;2023-07-29T22:29:24;17.60;99.90
81488;DHT22;70897;52.464;13.428;2023-07-29T22:32:09;17.50;99.90
81488;DHT22;70897;52.464;13.428;2023-07-29T22:34:54;17.50;99.90
81488;DHT22;70897;52.464;13.428;2023-07-29T22:37:39;17.40;99.90
81488;DHT22;70897;52.464;13.428;2023-07-29T22:40:24;17.30;99.90
81488;DHT22;70897;52.464;13.428;2023-07-29T22:43:09;17.30;99.90
81488;DHT22;70897;52.464;13.428;2023-07-29T22:45:56;17.30;99.90
81488;DHT22;70897;52.464;13.428;2023-07-29T22:48:41;17.20;99.90
81488;DHT22;70897;52.464;13.428;2023-07-29T22:51:26;17.10;99.90
81488;DHT22;70897;52.464;13.428;2023-07-29T22:54:11;17.10;99.90
81488;DHT22;70897;52.464;13.428;2023-07-29T22:56:56;17.10;99.90
81488;DHT22;70897;52.464;13.428;2023-07-29T22:59:41;17.00;99.90
81488;DHT22;70897;52.464;13.428;2023-07-29T23:02:26;17.00;99.90
81488;DHT22;70897;52.464;13.428;2023-07-29T23:05:11;17.00;99.90
81488;DHT22;70897;52.464;13.428;2023-07-29T23:07:56;16.90;99.90
81488;DHT22;70897;52.464;13.428;2023-07-29T23:10:41;16.90;99.90
81488;DHT22;70897;52.464;13.428;2023-07-29T23:13:26;16.90;99.90
81488;DHT22;70897;52.464;13.428;2023-07-29T23:16:11;16.80;99.90
81488;DHT22;70897;52.464;13.428;2023-07-29T23:18:56;16.80;99.90
81488;DHT22;70897;52.464;13.428;2023-07-29T23:21:41;16.70;99.90
81488;DHT22;70897;52.464;13.428;2023-07-29T23:24:26;16.80;99.90
81488;DHT22;70897;52.464;13.428;2023-07-29T23:27:11;16.80;99.90
81488;DHT22;70897;52.464;13.428;2023-07-29T23:29:56;16.80;99.90
81488;DHT22;70897;52.464;13.428;2023-07-29T23:32:41;16.70;99.90
81488;DHT22;70897;52.464;13.428;2023-07-29T23:35:26;16.60;99.90
81488;DHT22;70897;52.464;13.428;2023-07-29T23:38:11;16.70;99.90
81488;DHT22;70897;52.464;13.428;2023-07-29T23:40:56;16.70;99.90
81488;DHT22;70897;52.464;13.428;2023-07-29T23:43:41;16.60;99.90
81488;DHT22;70897;52.464;13.428;2023-07-29T23:46:26;16.60;99.90
81488;DHT22;70897;52.464;13.428;2023-07-29T23:49:11;16.60;99.90
81488;DHT22;70897;52.464;13.428;2023-07-29T23:51:56;16.50;99.90
81488;DHT22;70897;52.464;13.428;2023-07-29T23:54:41;16.50;99.90
81488;DHT22;70897;52.464;13.428;2023-07-29T23:57:27;16.50;99.90
